EGBJ/GLO METAR and TAF weather

Enter ICAO airport designator
Station Type Date Time Source
EGBJ METAR 2021/10/24 17:50 UTC NOAA

EGBJ 241750Z 17010KT 9999 FEW018 13/12 Q1013


Station Type Date Time Source
EGBJ Decoded METAR 2021/10/24 17:50 UTC NOAA

Staverton Private , United Kingdom (EGBJ) 51-54N 002-10W
Oct 24, 2021 - 01:50 PM EDT / 2021.10.24 1750 UTC
Wind: from the S (170 degrees) at 12 MPH (10 KT):0
Visibility: greater than 7 mile(s):0
Sky conditions: mostly clear
Temperature: 55 F (13 C)
Dew Point: 53 F (12 C)
Relative Humidity: 93%
Pressure (altimeter): 29.91 in. Hg (1013 hPa)
ob: EGBJ 241750Z 17010KT 9999 FEW018 13/12 Q1013
cycle: 18

Station Type Date Time Source
EGBJ TAF UTC NOAA

Error!

Example: see airport list